Time;durP1;ratioP1;P1;durP2;ratioP2;P2;SDS_P1;SDS_P2;PMS_P1;PMS_P2;Temp;Humidity;BMP_temperature;BMP_pressure;BME280_temperature;BME280_humidity;BME280_pressure;Samples;Min_cycle;Max_cycle;Signal;HPM_P1;HPM_P2
2022/01/20 00:00:32;;;;;;;16.15;4.05;;;5.00;99.90;;;;;;5097128;28;20210;-75
2022/01/20 00:03:03;;;;;;;13.45;4.05;;;5.00;99.90;;;;;;5099262;28;20264;-75
2022/01/20 00:05:40;;;;;;;15.65;4.47;;;5.00;99.90;;;;;;5096925;28;20285;-77
2022/01/20 00:08:16;;;;;;;19.80;4.43;;;5.00;99.90;;;;;;5096815;28;20209;-74
2022/01/20 00:27:31;;;;;;;11.23;2.70;;;5.40;99.90;;;;;;5095486;28;20201;-75
2022/01/20 00:30:28;;;;;;;10.20;2.40;;;5.50;99.90;;;;;;5094429;28;20651;-74
2022/01/20 00:33:03;;;;;;;10.82;3.50;;;5.40;99.90;;;;;;5095361;28;20234;-74
2022/01/20 00:37:14;;;;;;;10.70;2.97;;;5.40;99.90;;;;;;5095338;28;20251;-74
2022/01/20 00:38:17;;;;;;;12.30;2.72;;;5.30;99.90;;;;;;5092056;28;20291;-75
2022/01/20 00:40:44;;;;;;;14.98;2.88;;;5.20;99.90;;;;;;5094997;28;20650;-76
2022/01/20 00:43:12;;;;;;;13.57;3.00;;;5.10;99.90;;;;;;5096652;28;20285;-74
2022/01/20 00:45:39;;;;;;;14.10;2.63;;;4.90;99.90;;;;;;5095868;28;20190;-74
2022/01/20 00:48:08;;;;;;;9.07;2.00;;;4.80;99.90;;;;;;5095671;28;20289;-75
2022/01/20 00:50:35;;;;;;;9.15;2.50;;;4.70;99.90;;;;;;5094643;28;20208;-75
2022/01/20 00:53:02;;;;;;;7.80;2.60;;;4.60;99.90;;;;;;5096903;28;20232;-75
2022/01/20 00:55:29;;;;;;;15.50;2.35;;;4.50;99.90;;;;;;5095308;28;20194;-74
2022/01/20 00:57:56;;;;;;;17.15;2.33;;;4.40;99.90;;;;;;5095325;28;20198;-75
2022/01/20 01:00:23;;;;;;;19.38;4.22;;;4.30;99.90;;;;;;5095288;28;20675;-75
2022/01/20 01:02:50;;;;;;;10.38;1.98;;;4.20;99.90;;;;;;5094749;28;20253;-75
2022/01/20 01:05:18;;;;;;;10.45;3.00;;;4.20;99.90;;;;;;5095486;28;20202;-75
2022/01/20 01:07:50;;;;;;;10.18;4.28;;;4.20;99.90;;;;;;5099190;28;20238;-75
2022/01/20 01:10:19;;;;;;;15.77;2.78;;;4.30;99.90;;;;;;5094693;28;20207;-76
2022/01/20 01:12:51;;;;;;;20.35;3.80;;;4.20;99.90;;;;;;5095268;28;20655;-75
2022/01/20 01:15:22;;;;;;;13.32;4.28;;;4.20;99.90;;;;;;5094955;28;20255;-75
2022/01/20 01:20:57;;;;;;;14.60;3.20;;;4.30;99.90;;;;;;5093369;28;20303;-75
2022/01/20 01:23:23;;;;;;;25.20;3.88;;;4.30;99.90;;;;;;5094895;28;20251;-74
2022/01/20 01:25:50;;;;;;;7.75;2.78;;;4.40;99.90;;;;;;5095086;28;20285;-76
2022/01/20 01:28:19;;;;;;;12.65;2.55;;;4.40;99.90;;;;;;5095215;28;20206;-77
2022/01/20 01:31:12;;;;;;;16.15;3.35;;;4.40;99.90;;;;;;5093963;28;20227;-75
2022/01/20 01:33:49;;;;;;;9.70;2.88;;;4.50;99.90;;;;;;5094758;28;20668;-75
2022/01/20 01:36:19;;;;;;;15.43;2.92;;;4.60;99.90;;;;;;5091127;28;20201;-75
2022/01/20 01:38:47;;;;;;;17.15;3.05;;;4.60;99.90;;;;;;5088953;28;20202;-75
2022/01/20 01:41:19;;;;;;;16.15;3.55;;;4.60;99.90;;;;;;5093901;28;20206;-76
2022/01/20 01:43:50;;;;;;;15.40;2.88;;;4.70;99.90;;;;;;5094582;28;20206;-75
2022/01/20 01:46:17;;;;;;;20.13;4.07;;;4.60;99.90;;;;;;5094741;28;20209;-74
2022/01/20 01:48:46;;;;;;;22.85;4.38;;;4.70;99.90;;;;;;5093811;28;20198;-75
2022/01/20 01:51:14;;;;;;;16.20;3.85;;;4.70;99.90;;;;;;5093085;28;20222;-74
2022/01/20 01:53:43;;;;;;;14.43;3.13;;;4.70;99.90;;;;;;5094253;28;20232;-74
2022/01/20 01:56:10;;;;;;;17.85;3.03;;;4.70;99.90;;;;;;5094452;28;20289;-76
2022/01/20 01:58:37;;;;;;;16.23;4.18;;;4.80;99.90;;;;;;5094304;28;20229;-75
2022/01/20 02:01:04;;;;;;;11.45;3.70;;;4.80;99.90;;;;;;5094024;28;20233;-75
2022/01/20 02:03:33;;;;;;;16.80;4.45;;;4.80;99.90;;;;;;5087294;28;21238;-74
2022/01/20 02:06:21;;;;;;;21.38;3.80;;;4.80;99.90;;;;;;5083878;28;20653;-75
2022/01/20 02:08:57;;;;;;;9.25;2.88;;;4.70;99.90;;;;;;5090222;28;20222;-75
2022/01/20 02:19:44;;;;;;;9.98;2.45;;;4.60;99.90;;;;;;5093141;28;20217;-74
2022/01/20 02:22:11;;;;;;;14.35;4.75;;;4.60;99.90;;;;;;5094387;28;20226;-75
2022/01/20 02:24:38;;;;;;;15.07;2.25;;;4.60;99.90;;;;;;5094164;28;20294;-75
2022/01/20 02:27:05;;;;;;;15.85;3.50;;;4.50;99.90;;;;;;5094636;28;20206;-74
2022/01/20 02:29:32;;;;;;;9.55;2.95;;;4.50;99.90;;;;;;5093325;28;20565;-74
2022/01/20 02:32:00;;;;;;;11.65;3.83;;;4.60;99.90;;;;;;5094287;28;20240;-75
2022/01/20 02:34:30;;;;;;;7.97;2.33;;;4.50;99.90;;;;;;5093027;28;20297;-75
2022/01/20 02:37:01;;;;;;;4.85;2.22;;;4.60;99.90;;;;;;5094346;28;20198;-74
2022/01/20 02:39:48;;;;;;;5.53;1.95;;;4.60;99.90;;;;;;5093986;28;20307;-74
2022/01/20 02:45:09;;;;;;;8.32;1.90;;;4.70;99.90;;;;;;5057626;28;20210;-74
2022/01/20 02:47:36;;;;;;;16.35;2.80;;;4.70;99.90;;;;;;5094384;28;20701;-74
2022/01/20 02:50:04;;;;;;;9.25;3.28;;;4.80;99.90;;;;;;5093778;28;20241;-76
2022/01/20 02:52:32;;;;;;;11.95;2.55;;;4.90;99.90;;;;;;5093837;28;20228;-75
2022/01/20 02:54:59;;;;;;;6.15;1.65;;;4.90;99.90;;;;;;5094031;28;20615;-73
2022/01/20 02:57:26;;;;;;;9.10;3.03;;;4.90;99.90;;;;;;5093614;28;20202;-76
2022/01/20 02:59:53;;;;;;;9.05;2.97;;;4.90;99.90;;;;;;5093326;28;20209;-75
2022/01/20 03:02:20;;;;;;;8.15;4.35;;;4.90;99.90;;;;;;5093436;28;20229;-73
2022/01/20 03:04:47;;;;;;;10.23;4.07;;;4.90;99.90;;;;;;5093480;28;20230;-73
2022/01/20 03:07:14;;;;;;;11.77;4.30;;;4.90;99.90;;;;;;5094184;28;20285;-73
2022/01/20 03:09:43;;;;;;;10.88;2.97;;;4.90;99.90;;;;;;5095868;28;20285;-73
2022/01/20 03:12:10;;;;;;;10.27;3.10;;;4.90;99.90;;;;;;5114225;28;20235;-73
2022/01/20 03:14:37;;;;;;;5.15;2.42;;;5.00;99.90;;;;;;5107687;28;20757;-74
2022/01/20 03:17:04;;;;;;;8.88;2.80;;;5.00;99.90;;;;;;5094880;28;20305;-74
2022/01/20 03:19:31;;;;;;;15.50;3.35;;;4.80;99.90;;;;;;5093886;28;20313;-73
2022/01/20 03:21:58;;;;;;;6.32;2.22;;;4.90;99.90;;;;;;5096825;28;20229;-74
2022/01/20 03:24:25;;;;;;;12.30;3.42;;;4.80;99.90;;;;;;5097149;28;20199;-74
2022/01/20 03:26:53;;;;;;;11.23;3.15;;;4.70;99.90;;;;;;5104952;28;20229;-73
2022/01/20 03:29:20;;;;;;;11.55;2.60;;;4.70;99.90;;;;;;5092324;28;20200;-75
2022/01/20 03:31:47;;;;;;;8.13;2.83;;;4.70;99.90;;;;;;5105786;28;20282;-74
2022/01/20 03:34:14;;;;;;;7.45;2.42;;;4.60;99.90;;;;;;5106258;28;20238;-75
2022/01/20 03:36:41;;;;;;;10.55;3.10;;;4.50;99.90;;;;;;5097658;28;20210;-75
2022/01/20 03:39:08;;;;;;;7.10;2.95;;;4.40;99.90;;;;;;5097719;28;20198;-74
2022/01/20 03:41:34;;;;;;;9.18;2.38;;;4.40;99.90;;;;;;5095473;28;20225;-74
2022/01/20 03:44:03;;;;;;;16.95;3.13;;;4.40;99.90;;;;;;5096439;28;20285;-75
2022/01/20 03:46:30;;;;;;;17.88;3.40;;;4.30;99.90;;;;;;5096635;28;20632;-74
2022/01/20 03:49:07;;;;;;;14.98;3.65;;;4.30;99.90;;;;;;5097127;28;20237;-74
2022/01/20 03:51:34;;;;;;;8.55;2.78;;;4.20;99.90;;;;;;5096027;28;20696;-74
2022/01/20 03:54:03;;;;;;;13.25;3.45;;;4.20;99.90;;;;;;5097391;28;20202;-74
2022/01/20 03:56:30;;;;;;;15.77;2.92;;;4.30;99.90;;;;;;5096914;28;20200;-75
2022/01/20 03:58:58;;;;;;;15.30;3.50;;;4.30;99.90;;;;;;5096683;28;20198;-74
2022/01/20 04:01:27;;;;;;;16.48;4.50;;;4.40;99.90;;;;;;5096308;28;20225;-74
2022/01/20 04:03:54;;;;;;;15.82;3.70;;;4.30;99.90;;;;;;5095979;28;20656;-74
2022/01/20 04:06:22;;;;;;;18.98;5.22;;;4.20;99.90;;;;;;5096166;28;20198;-74
2022/01/20 04:08:51;;;;;;;19.50;4.68;;;4.20;99.90;;;;;;5095956;28;20565;-74
2022/01/20 04:11:22;;;;;;;12.45;5.38;;;4.20;99.90;;;;;;5095538;28;20229;-74
2022/01/20 04:13:50;;;;;;;10.77;4.07;;;4.20;99.90;;;;;;5096270;28;20202;-73
2022/01/20 04:16:20;;;;;;;17.25;5.60;;;4.20;99.90;;;;;;5096438;28;20239;-75
2022/01/20 04:18:54;;;;;;;11.65;4.20;;;4.20;99.90;;;;;;5095052;28;20658;-75
2022/01/20 04:21:22;;;;;;;18.55;5.43;;;4.30;99.90;;;;;;5092614;28;20222;-75
2022/01/20 04:23:49;;;;;;;16.35;5.07;;;4.30;99.90;;;;;;5096279;28;20217;-75
2022/01/20 04:26:16;;;;;;;10.73;4.22;;;4.30;99.90;;;;;;5095957;28;20202;-75
2022/01/20 04:28:43;;;;;;;14.68;3.33;;;4.30;99.90;;;;;;5092721;28;20198;-76
2022/01/20 04:31:10;;;;;;;15.50;3.45;;;4.30;99.90;;;;;;5096156;28;20224;-75
2022/01/20 04:33:37;;;;;;;20.35;4.07;;;4.20;99.90;;;;;;5095794;28;20309;-75
2022/01/20 04:36:07;;;;;;;20.88;5.00;;;4.20;99.90;;;;;;5095398;28;20198;-75
2022/01/20 04:38:34;;;;;;;13.20;3.72;;;4.20;99.90;;;;;;5096378;28;20292;-74
2022/01/20 04:41:01;;;;;;;12.43;5.50;;;4.20;99.90;;;;;;5095541;28;20312;-75
2022/01/20 04:43:28;;;;;;;18.42;4.05;;;4.20;99.90;;;;;;5096159;28;20202;-75
2022/01/20 04:46:02;;;;;;;20.27;4.78;;;4.20;99.90;;;;;;5095705;28;20202;-75
2022/01/20 04:48:43;;;;;;;17.48;4.18;;;4.30;99.90;;;;;;5095797;28;20230;-75
2022/01/20 04:59:44;;;;;;;9.38;3.03;;;4.20;99.90;;;;;;5027414;28;20279;-75
2022/01/20 05:02:11;;;;;;;10.48;3.45;;;4.10;99.90;;;;;;5069749;28;20218;-75
2022/01/20 05:04:39;;;;;;;11.73;3.05;;;4.10;99.90;;;;;;5099997;28;20238;-75
2022/01/20 05:07:08;;;;;;;21.15;3.33;;;4.10;99.90;;;;;;5095455;28;20637;-74
2022/01/20 05:09:36;;;;;;;7.63;3.22;;;4.10;99.90;;;;;;5094942;28;20198;-74
2022/01/20 05:12:07;;;;;;;15.02;3.70;;;4.10;99.90;;;;;;5095327;28;20226;-75
2022/01/20 05:14:34;;;;;;;9.30;2.60;;;4.00;99.90;;;;;;5094827;28;20252;-74
2022/01/20 05:17:02;;;;;;;8.68;1.70;;;4.00;99.90;;;;;;5095123;28;20202;-75
2022/01/20 05:19:31;;;;;;;12.73;2.67;;;4.10;99.90;;;;;;5094152;28;20232;-75
2022/01/20 05:21:58;;;;;;;8.20;2.50;;;4.00;99.90;;;;;;5081466;28;20223;-75
2022/01/20 05:24:26;;;;;;;9.80;3.10;;;4.00;99.90;;;;;;5092787;28;20647;-75
2022/01/20 05:26:55;;;;;;;23.00;3.58;;;4.00;99.90;;;;;;5095673;28;20288;-74
2022/01/20 05:29:23;;;;;;;9.27;2.67;;;3.90;99.90;;;;;;5095266;28;20190;-74
2022/01/20 05:31:50;;;;;;;6.93;3.38;;;3.80;99.90;;;;;;5093930;28;20228;-74
2022/01/20 05:34:18;;;;;;;10.10;2.60;;;3.80;99.90;;;;;;5094659;28;20249;-75
2022/01/20 05:36:47;;;;;;;7.38;2.45;;;3.80;99.90;;;;;;5094831;28;20205;-75
2022/01/20 05:39:14;;;;;;;12.93;3.55;;;3.80;99.90;;;;;;5095076;28;20641;-74
2022/01/20 05:41:44;;;;;;;8.88;3.00;;;3.90;99.90;;;;;;5094131;28;20723;-75
2022/01/20 05:44:11;;;;;;;9.48;3.50;;;3.90;99.90;;;;;;5094857;28;20186;-74
2022/01/20 05:46:43;;;;;;;19.55;5.53;;;3.90;99.90;;;;;;5095836;28;20191;-75
2022/01/20 05:49:10;;;;;;;14.55;4.43;;;3.90;99.90;;;;;;5094165;28;20201;-74
2022/01/20 05:51:38;;;;;;;9.20;3.20;;;3.80;99.90;;;;;;5094197;28;20308;-74
2022/01/20 05:54:06;;;;;;;10.82;3.17;;;3.70;99.90;;;;;;5095241;28;20192;-74
2022/01/20 05:56:33;;;;;;;10.15;3.45;;;3.70;99.90;;;;;;5095472;28;20210;-74
2022/01/20 05:59:01;;;;;;;13.18;3.60;;;3.70;99.90;;;;;;5094611;28;20659;-75
2022/01/20 06:01:29;;;;;;;18.63;4.07;;;3.60;99.90;;;;;;5093686;28;20234;-74
2022/01/20 06:03:56;;;;;;;10.82;3.67;;;3.60;99.90;;;;;;5094535;28;20220;-74
2022/01/20 06:06:23;;;;;;;19.17;3.38;;;3.50;99.90;;;;;;5094707;28;20196;-74
2022/01/20 06:08:50;;;;;;;11.20;3.10;;;3.50;99.90;;;;;;5094545;28;20200;-74
2022/01/20 06:11:18;;;;;;;7.88;2.95;;;3.50;99.90;;;;;;5093454;28;20574;-74
2022/01/20 06:13:45;;;;;;;12.70;3.92;;;3.40;99.90;;;;;;5093971;28;20240;-74
2022/01/20 06:16:14;;;;;;;14.43;4.20;;;3.40;99.90;;;;;;5094082;28;20265;-74
2022/01/20 06:18:41;;;;;;;22.02;4.70;;;3.40;99.90;;;;;;5093937;28;20311;-75
2022/01/20 06:21:09;;;;;;;23.83;5.13;;;3.30;99.90;;;;;;5093482;28;20316;-74
2022/01/20 06:23:36;;;;;;;13.82;4.20;;;3.30;99.90;;;;;;5093530;28;20293;-75
2022/01/20 06:26:05;;;;;;;18.13;3.55;;;3.30;99.90;;;;;;5093784;28;20297;-74
2022/01/20 06:28:32;;;;;;;19.60;5.32;;;3.20;99.90;;;;;;5094340;28;20726;-75
2022/01/20 06:31:00;;;;;;;9.38;3.50;;;3.20;99.90;;;;;;5084156;28;20222;-76
2022/01/20 06:33:28;;;;;;;14.45;5.78;;;3.20;99.90;;;;;;5093418;28;20237;-74
2022/01/20 06:35:55;;;;;;;22.67;3.70;;;3.10;99.90;;;;;;5093812;28;20288;-75
2022/01/20 06:38:24;;;;;;;12.52;3.90;;;3.20;99.90;;;;;;5094012;28;20201;-75
2022/01/20 06:40:51;;;;;;;15.60;6.05;;;3.10;99.90;;;;;;5093817;28;20263;-74
2022/01/20 06:43:18;;;;;;;7.88;3.13;;;3.10;99.90;;;;;;5096321;28;20273;-74
2022/01/20 06:45:45;;;;;;;28.10;11.13;;;3.30;99.90;;;;;;5095142;28;20198;-74
2022/01/20 06:48:12;;;;;;;9.20;3.78;;;3.40;99.90;;;;;;5095628;28;20289;-74
2022/01/20 06:50:40;;;;;;;7.10;2.45;;;3.40;99.90;;;;;;5094324;28;20237;-75
2022/01/20 06:53:07;;;;;;;13.18;3.80;;;3.30;99.90;;;;;;5094395;28;20440;-77
2022/01/20 06:55:35;;;;;;;12.98;4.88;;;3.20;99.90;;;;;;5096254;28;20194;-76
2022/01/20 06:58:02;;;;;;;9.75;2.53;;;3.10;99.90;;;;;;5097788;28;20237;-78
2022/01/20 07:00:29;;;;;;;10.57;2.50;;;3.10;99.90;;;;;;5099161;28;20233;-77
2022/01/20 07:02:58;;;;;;;9.75;3.13;;;3.10;99.90;;;;;;5102173;28;20221;-73
2022/01/20 07:05:25;;;;;;;12.52;3.30;;;3.10;99.90;;;;;;5100272;28;20204;-72
2022/01/20 07:07:53;;;;;;;12.40;3.05;;;3.10;99.90;;;;;;5102923;28;20299;-72
2022/01/20 07:10:22;;;;;;;6.70;4.95;;;3.10;99.90;;;;;;5100377;28;20630;-73
2022/01/20 07:12:51;;;;;;;12.82;2.90;;;3.10;99.90;;;;;;5098990;28;20304;-74
2022/01/20 07:15:19;;;;;;;14.30;3.17;;;3.10;99.90;;;;;;5093891;28;20206;-73
2022/01/20 07:17:46;;;;;;;10.35;3.95;;;3.20;99.90;;;;;;5097111;28;20284;-74
2022/01/20 07:20:14;;;;;;;12.18;2.90;;;3.20;99.90;;;;;;5096170;28;20287;-76
2022/01/20 07:22:41;;;;;;;11.77;3.42;;;3.30;99.90;;;;;;5097388;28;20235;-74
2022/01/20 07:25:10;;;;;;;7.78;2.20;;;3.30;99.90;;;;;;5097694;28;20676;-74
2022/01/20 07:27:37;;;;;;;12.68;3.20;;;3.30;99.90;;;;;;5097334;28;20722;-74
2022/01/20 07:30:05;;;;;;;11.70;2.65;;;3.30;99.90;;;;;;5097090;28;20617;-74
2022/01/20 07:32:32;;;;;;;13.30;3.42;;;3.30;99.90;;;;;;5096528;28;20226;-73
2022/01/20 07:35:00;;;;;;;9.02;2.92;;;3.40;99.90;;;;;;5090161;28;20534;-74
2022/01/20 07:37:27;;;;;;;14.93;2.22;;;3.40;99.90;;;;;;5096399;28;20208;-78
2022/01/20 07:39:55;;;;;;;6.50;2.20;;;3.50;99.90;;;;;;5092097;28;20655;-74
2022/01/20 07:42:23;;;;;;;9.90;2.90;;;3.60;99.90;;;;;;5097394;28;20226;-74
2022/01/20 07:44:50;;;;;;;15.35;5.40;;;3.60;99.90;;;;;;5096854;28;20271;-74
2022/01/20 07:47:17;;;;;;;9.98;2.78;;;3.50;99.90;;;;;;5096902;28;20206;-75
2022/01/20 07:49:44;;;;;;;14.68;4.10;;;3.50;99.90;;;;;;5095738;28;20659;-73
2022/01/20 07:52:12;;;;;;;10.85;3.28;;;3.40;99.90;;;;;;5097091;28;20240;-74
2022/01/20 07:54:39;;;;;;;9.60;2.47;;;3.40;99.90;;;;;;5096712;28;20239;-73
2022/01/20 07:57:07;;;;;;;8.45;2.65;;;3.40;99.90;;;;;;5096913;28;20548;-73
2022/01/20 07:59:36;;;;;;;11.43;2.28;;;3.40;99.90;;;;;;5095931;28;20664;-74
2022/01/20 08:02:03;;;;;;;6.82;2.38;;;3.50;99.90;;;;;;5096557;28;20279;-74
2022/01/20 08:04:30;;;;;;;11.30;3.97;;;3.50;99.90;;;;;;5090050;28;20721;-75
2022/01/20 08:06:57;;;;;;;13.45;3.67;;;3.40;99.90;;;;;;5089904;28;20622;-75
2022/01/20 08:09:24;;;;;;;15.70;4.05;;;3.40;99.90;;;;;;5088136;28;20199;-72
2022/01/20 08:11:51;;;;;;;10.68;3.10;;;3.50;99.90;;;;;;5094405;28;20218;-73
2022/01/20 08:14:18;;;;;;;13.80;4.07;;;3.50;99.90;;;;;;5094069;28;20237;-73
2022/01/20 08:16:47;;;;;;;13.35;4.93;;;3.50;99.90;;;;;;5096303;28;20298;-73
2022/01/20 08:19:15;;;;;;;14.40;4.70;;;3.60;99.90;;;;;;5095959;28;20285;-73
2022/01/20 08:21:42;;;;;;;10.20;3.78;;;3.50;99.90;;;;;;5095098;28;20230;-72
2022/01/20 08:24:08;;;;;;;11.45;3.80;;;3.50;99.90;;;;;;5094223;28;20205;-73
2022/01/20 08:26:35;;;;;;;7.15;3.55;;;3.50;99.90;;;;;;5095186;28;20611;-73
2022/01/20 08:29:03;;;;;;;12.82;3.97;;;3.50;99.90;;;;;;5090516;28;20214;-75
2022/01/20 08:31:31;;;;;;;10.40;3.45;;;3.50;99.90;;;;;;5094919;28;20308;-74
2022/01/20 08:33:59;;;;;;;12.48;4.20;;;3.50;99.90;;;;;;5086076;28;20214;-74
2022/01/20 08:36:26;;;;;;;12.27;4.65;;;3.60;99.90;;;;;;5089397;28;20517;-75
2022/01/20 08:38:53;;;;;;;17.88;4.60;;;3.60;99.90;;;;;;5080866;28;20293;-75
2022/01/20 08:41:20;;;;;;;11.98;4.00;;;3.80;99.90;;;;;;5094294;28;20222;-74
2022/01/20 08:43:47;;;;;;;11.60;3.20;;;4.00;99.90;;;;;;5088906;28;20237;-73
2022/01/20 08:46:19;;;;;;;13.30;3.17;;;4.30;99.90;;;;;;5090031;28;20205;-74
2022/01/20 08:48:46;;;;;;;10.52;3.95;;;4.60;99.90;;;;;;5090127;28;20203;-73
2022/01/20 08:51:15;;;;;;;19.30;3.67;;;4.70;99.90;;;;;;5101700;28;20327;-73
2022/01/20 08:53:42;;;;;;;12.25;3.63;;;4.60;99.90;;;;;;5091347;28;20289;-77
2022/01/20 08:56:09;;;;;;;13.68;3.55;;;4.50;99.90;;;;;;5093278;28;20258;-74
2022/01/20 08:58:35;;;;;;;27.23;5.15;;;4.50;99.90;;;;;;5086432;28;20207;-73
2022/01/20 09:01:04;;;;;;;7.65;3.90;;;4.50;99.90;;;;;;5090637;28;20294;-74
2022/01/20 09:03:32;;;;;;;12.85;4.20;;;4.40;99.90;;;;;;5090710;28;20628;-73
2022/01/20 09:05:59;;;;;;;15.55;4.15;;;4.30;99.90;;;;;;5086612;28;20212;-72
2022/01/20 09:08:27;;;;;;;18.20;5.47;;;4.30;99.90;;;;;;5094784;28;20285;-75
2022/01/20 09:10:56;;;;;;;18.95;5.88;;;4.20;99.90;;;;;;5093672;28;20262;-76
2022/01/20 09:16:16;;;;;;;16.15;4.50;;;4.20;99.90;;;;;;5062903;28;20198;-73
2022/01/20 09:18:44;;;;;;;26.65;5.38;;;4.20;99.90;;;;;;5087635;28;20198;-74
2022/01/20 09:21:11;;;;;;;16.17;4.75;;;4.20;99.90;;;;;;5091011;28;20321;-74
2022/01/20 09:23:39;;;;;;;18.73;6.43;;;4.40;99.90;;;;;;5093242;28;20289;-74
2022/01/20 09:26:06;;;;;;;12.63;4.15;;;4.90;99.90;;;;;;5087925;28;20282;-74
2022/01/20 09:28:33;;;;;;;16.33;5.88;;;5.90;99.90;;;;;;5093333;28;20646;-75
2022/01/20 09:31:02;;;;;;;13.40;3.00;;;6.80;99.90;;;;;;5093421;28;20235;-73
2022/01/20 09:33:29;;;;;;;12.35;3.50;;;7.30;99.90;;;;;;5094708;28;20221;-74
2022/01/20 09:35:58;;;;;;;11.55;3.50;;;7.20;99.90;;;;;;5094330;28;20209;-73
2022/01/20 09:38:25;;;;;;;8.48;2.65;;;6.60;99.90;;;;;;5091611;28;20278;-73
2022/01/20 09:40:54;;;;;;;10.65;4.70;;;5.90;99.90;;;;;;5093318;28;20714;-73
2022/01/20 09:43:21;;;;;;;15.13;3.58;;;5.10;99.90;;;;;;5086503;28;20258;-76
2022/01/20 09:45:54;;;;;;;5.50;2.85;;;4.60;99.90;;;;;;5094053;28;20202;-75
2022/01/20 09:48:22;;;;;;;9.18;2.50;;;4.10;99.90;;;;;;5074409;28;20717;-73
2022/01/20 09:50:50;;;;;;;12.95;2.63;;;3.80;99.90;;;;;;5089013;28;20225;-75
2022/01/20 09:53:17;;;;;;;5.15;2.40;;;3.80;99.90;;;;;;5092630;28;20202;-75
2022/01/20 09:55:44;;;;;;;14.80;2.90;;;3.70;99.90;;;;;;5087549;28;20198;-73
2022/01/20 09:58:13;;;;;;;8.23;3.70;;;3.70;99.90;;;;;;5093731;28;20208;-73
2022/01/20 10:00:43;;;;;;;7.82;2.25;;;3.70;99.90;;;;;;5090777;28;20298;-73
2022/01/20 10:03:12;;;;;;;2.85;2.17;;;3.50;99.90;;;;;;5079076;28;20222;-70
2022/01/20 10:05:42;;;;;;;12.98;2.45;;;3.30;99.90;;;;;;5092218;28;20296;-69
2022/01/20 10:08:14;;;;;;;13.10;4.05;;;3.20;99.90;;;;;;5085541;28;20198;-69
2022/01/20 10:10:46;;;;;;;9.90;2.40;;;3.20;99.90;;;;;;5092104;28;20518;-72
2022/01/20 10:13:17;;;;;;;13.20;2.50;;;3.20;99.90;;;;;;5086280;28;20289;-72
2022/01/20 10:15:54;;;;;;;8.27;3.05;;;3.40;99.90;;;;;;5085048;28;20277;-73
2022/01/20 10:18:21;;;;;;;6.05;2.72;;;3.80;99.90;;;;;;5090226;28;20252;-71
2022/01/20 10:20:54;;;;;;;7.03;2.60;;;4.40;99.90;;;;;;5089121;28;20199;-72
2022/01/20 10:23:36;;;;;;;4.65;2.13;;;5.00;99.90;;;;;;5090173;28;20213;-71
2022/01/20 10:26:12;;;;;;;16.52;4.13;;;6.00;99.90;;;;;;5075341;28;20633;-70
2022/01/20 10:28:55;;;;;;;5.57;2.42;;;7.10;99.90;;;;;;5094124;28;20241;-72
2022/01/20 10:31:35;;;;;;;9.55;2.35;;;8.10;99.90;;;;;;5086229;28;20227;-68
2022/01/20 10:34:03;;;;;;;4.50;2.20;;;8.90;99.90;;;;;;5093483;28;20239;-69
2022/01/20 10:36:30;;;;;;;17.67;4.25;;;9.20;99.90;;;;;;5092604;28;20273;-71
2022/01/20 10:38:59;;;;;;;10.30;3.63;;;9.40;99.90;;;;;;5092130;28;20208;-68
2022/01/20 10:41:37;;;;;;;12.40;4.47;;;9.70;99.90;;;;;;5090547;28;20226;-70
2022/01/20 10:44:09;;;;;;;18.67;4.43;;;9.80;99.90;;;;;;5092951;28;20285;-70
2022/01/20 10:46:48;;;;;;;15.35;5.40;;;9.30;99.90;;;;;;5092692;28;20309;-72
2022/01/20 10:49:15;;;;;;;16.40;4.97;;;8.80;99.90;;;;;;5090757;28;20288;-70
2022/01/20 10:51:44;;;;;;;13.07;4.38;;;8.40;99.90;;;;;;5092253;28;20302;-70
2022/01/20 10:54:14;;;;;;;14.93;3.45;;;8.10;99.90;;;;;;5084987;28;20201;-69
2022/01/20 10:56:49;;;;;;;16.42;4.30;;;7.80;99.90;;;;;;5092724;28;20209;-68
2022/01/20 10:59:18;;;;;;;10.52;4.93;;;7.60;99.90;;;;;;5092702;28;20224;-70
2022/01/20 11:01:59;;;;;;;16.60;3.42;;;7.30;99.90;;;;;;5095917;28;20288;-71
2022/01/20 11:04:26;;;;;;;12.10;3.65;;;7.20;99.90;;;;;;5092625;28;20205;-71
2022/01/20 11:06:56;;;;;;;9.73;4.55;;;7.50;99.90;;;;;;5092709;28;20261;-69
2022/01/20 11:09:25;;;;;;;13.80;2.75;;;7.20;99.90;;;;;;5092401;28;20568;-70
2022/01/20 11:11:52;;;;;;;11.88;2.25;;;6.60;99.90;;;;;;5092431;28;20561;-70
2022/01/20 11:14:21;;;;;;;4.75;2.53;;;6.10;99.90;;;;;;5092965;28;20298;-74
2022/01/20 11:16:49;;;;;;;10.07;2.00;;;5.60;99.90;;;;;;5093379;28;20229;-76
2022/01/20 11:19:18;;;;;;;8.35;2.08;;;5.30;99.90;;;;;;5083932;28;20251;-75
2022/01/20 11:21:46;;;;;;;12.52;1.92;;;5.20;99.90;;;;;;5087544;28;20590;-75
2022/01/20 11:24:21;;;;;;;14.88;4.55;;;5.20;99.90;;;;;;5080765;28;20195;-74
2022/01/20 11:26:56;;;;;;;7.45;3.00;;;5.00;99.90;;;;;;5077856;28;20234;-75
2022/01/20 11:29:38;;;;;;;7.95;2.28;;;5.00;99.90;;;;;;5083112;28;20286;-74
2022/01/20 11:32:17;;;;;;;13.48;3.17;;;5.00;99.90;;;;;;5082710;28;20379;-75
2022/01/20 11:34:55;;;;;;;5.50;2.40;;;5.20;99.90;;;;;;5088616;28;20648;-74
2022/01/20 11:37:23;;;;;;;7.30;2.63;;;5.40;99.90;;;;;;5090176;28;20210;-76
2022/01/20 11:39:52;;;;;;;7.68;2.78;;;5.90;99.90;;;;;;5090546;28;20214;-75
2022/01/20 11:42:24;;;;;;;11.95;2.75;;;6.10;99.90;;;;;;5080863;28;20228;-75
2022/01/20 11:44:53;;;;;;;6.30;2.00;;;6.10;99.90;;;;;;5085250;28;20222;-76
2022/01/20 11:47:31;;;;;;;11.23;2.50;;;5.90;99.90;;;;;;5088797;28;20254;-74
2022/01/20 11:49:58;;;;;;;4.80;1.92;;;5.80;99.90;;;;;;5095951;28;20221;-75
2022/01/20 11:52:27;;;;;;;11.63;3.50;;;5.90;99.90;;;;;;5092917;28;20692;-75
2022/01/20 11:54:54;;;;;;;11.25;2.92;;;6.10;99.90;;;;;;5095810;28;20267;-75
2022/01/20 11:57:29;;;;;;;6.45;2.85;;;6.20;99.90;;;;;;5090542;28;20209;-75
2022/01/20 12:00:00;;;;;;;9.05;2.70;;;6.40;99.90;;;;;;5089798;28;20200;-76
2022/01/20 12:02:32;;;;;;;11.65;2.38;;;6.60;99.90;;;;;;5093380;28;20224;-74
2022/01/20 12:04:59;;;;;;;8.55;2.60;;;6.50;99.90;;;;;;5083782;28;20202;-75
2022/01/20 12:07:28;;;;;;;10.23;2.25;;;6.40;99.90;;;;;;5084347;28;20197;-74
2022/01/20 12:10:07;;;;;;;7.45;2.30;;;6.40;99.90;;;;;;5089756;28;20303;-74
2022/01/20 12:12:34;;;;;;;9.95;2.67;;;6.50;99.90;;;;;;5081956;28;20220;-75
2022/01/20 12:15:10;;;;;;;11.20;2.40;;;6.40;99.90;;;;;;5091269;28;20208;-74
2022/01/20 12:17:41;;;;;;;5.40;1.70;;;6.50;99.90;;;;;;5093538;28;20241;-74
2022/01/20 12:20:11;;;;;;;7.53;2.83;;;6.70;99.90;;;;;;5094125;28;20220;-74
2022/01/20 12:22:42;;;;;;;10.38;2.60;;;6.90;99.90;;;;;;5084263;28;20300;-75
2022/01/20 12:25:17;;;;;;;12.38;2.80;;;7.00;99.90;;;;;;5092629;28;20723;-74
2022/01/20 12:27:44;;;;;;;10.18;2.95;;;7.00;99.90;;;;;;5087457;28;20655;-74
2022/01/20 12:30:24;;;;;;;7.05;2.15;;;6.80;99.90;;;;;;5093639;28;20231;-75
2022/01/20 12:33:00;;;;;;;8.70;3.17;;;6.60;99.90;;;;;;5088416;28;20232;-74
2022/01/20 12:35:36;;;;;;;13.88;1.52;;;6.40;99.90;;;;;;5095349;28;20631;-74
2022/01/20 12:38:13;;;;;;;11.15;3.35;;;6.30;99.90;;;;;;5095667;28;20204;-74
2022/01/20 12:40:40;;;;;;;10.88;2.80;;;6.30;99.90;;;;;;5076930;28;20203;-75
2022/01/20 12:43:07;;;;;;;8.38;3.47;;;6.20;99.90;;;;;;5095833;28;20267;-75
2022/01/20 12:48:21;;;;;;;5.00;3.30;;;6.30;99.90;;;;;;5097442;28;20249;-74
2022/01/20 12:50:53;;;;;;;11.93;3.03;;;6.20;99.90;;;;;;5092726;28;20204;-75
2022/01/20 12:53:30;;;;;;;8.15;2.03;;;6.00;99.90;;;;;;5088670;28;20218;-73
2022/01/20 12:55:57;;;;;;;11.13;3.00;;;5.60;99.90;;;;;;5095546;28;20206;-74
2022/01/20 12:58:24;;;;;;;16.83;5.65;;;5.30;99.90;;;;;;5094694;28;20286;-75
2022/01/20 13:01:01;;;;;;;10.55;4.50;;;5.00;99.90;;;;;;5093908;28;20265;-73
2022/01/20 13:03:36;;;;;;;19.08;3.95;;;4.90;99.90;;;;;;5094891;28;20747;-75
2022/01/20 13:06:03;;;;;;;14.35;3.45;;;4.90;99.90;;;;;;5095710;28;20252;-73
2022/01/20 13:08:33;;;;;;;7.80;3.35;;;5.10;99.90;;;;;;5095399;28;20206;-75
2022/01/20 13:11:09;;;;;;;10.18;2.28;;;5.00;99.90;;;;;;5094057;28;20218;-74
2022/01/20 13:13:36;;;;;;;8.98;2.38;;;4.90;99.90;;;;;;5095001;28;20202;-74
2022/01/20 13:16:16;;;;;;;7.35;1.77;;;4.50;99.90;;;;;;5095153;28;20300;-75
2022/01/20 13:18:54;;;;;;;5.65;1.95;;;4.20;99.90;;;;;;5095383;28;20238;-73
2022/01/20 13:21:25;;;;;;;4.25;1.33;;;4.00;99.90;;;;;;5065243;28;20218;-76
2022/01/20 13:23:58;;;;;;;4.65;2.20;;;3.90;99.90;;;;;;5095470;28;20308;-75
2022/01/20 13:26:26;;;;;;;8.38;2.95;;;3.70;99.90;;;;;;5095040;28;20210;-75
2022/01/20 13:29:05;;;;;;;11.88;3.53;;;3.70;99.90;;;;;;5095333;28;20247;-75
2022/01/20 13:31:34;;;;;;;8.23;1.90;;;4.00;99.90;;;;;;5094888;28;20308;-76
2022/01/20 13:34:07;;;;;;;19.77;2.88;;;4.20;99.90;;;;;;5095068;28;20293;-76
2022/01/20 13:36:43;;;;;;;8.55;2.65;;;4.20;99.90;;;;;;5076522;28;20285;-76
2022/01/20 13:39:11;;;;;;;15.20;3.00;;;4.20;99.90;;;;;;5076060;28;20199;-76
2022/01/20 13:41:41;;;;;;;6.40;2.10;;;4.20;99.90;;;;;;5093510;28;20222;-76
2022/01/20 13:47:09;;;;;;;8.70;3.55;;;4.30;99.90;;;;;;5093979;28;20278;-76
2022/01/20 13:49:48;;;;;;;11.43;3.33;;;4.50;99.90;;;;;;5094318;28;20547;-76